sensor_id;sensor_type;location;lat;lon;timestamp;P1;durP1;ratioP1;P2;durP2;ratioP2
13872;SDS011;7006;51.494;11.964;2023-06-26T00:00:50;7.20;;;6.43;;
13872;SDS011;7006;51.494;11.964;2023-06-26T00:03:18;7.20;;;6.50;;
13872;SDS011;7006;51.494;11.964;2023-06-26T00:05:46;7.20;;;6.50;;
13872;SDS011;7006;51.494;11.964;2023-06-26T00:08:15;8.07;;;7.03;;
13872;SDS011;7006;51.494;11.964;2023-06-26T00:10:43;8.53;;;6.57;;
13872;SDS011;7006;51.494;11.964;2023-06-26T00:13:12;6.83;;;6.20;;
13872;SDS011;7006;51.494;11.964;2023-06-26T00:15:40;8.70;;;7.80;;
13872;SDS011;7006;51.494;11.964;2023-06-26T00:18:10;7.90;;;7.10;;
13872;SDS011;7006;51.494;11.964;2023-06-26T00:20:38;7.57;;;6.80;;
13872;SDS011;7006;51.494;11.964;2023-06-26T00:23:06;7.60;;;6.70;;
13872;SDS011;7006;51.494;11.964;2023-06-26T00:25:35;9.73;;;7.67;;
13872;SDS011;7006;51.494;11.964;2023-06-26T00:28:03;9.70;;;6.60;;
13872;SDS011;7006;51.494;11.964;2023-06-26T00:30:31;8.13;;;7.30;;
13872;SDS011;7006;51.494;11.964;2023-06-26T00:32:59;8.10;;;7.20;;
13872;SDS011;7006;51.494;11.964;2023-06-26T00:35:30;9.53;;;7.47;;
13872;SDS011;7006;51.494;11.964;2023-06-26T00:37:58;8.40;;;7.50;;
13872;SDS011;7006;51.494;11.964;2023-06-26T00:40:26;8.13;;;7.23;;
13872;SDS011;7006;51.494;11.964;2023-06-26T00:42:54;8.33;;;7.53;;
13872;SDS011;7006;51.494;11.964;2023-06-26T00:45:22;8.47;;;7.30;;
13872;SDS011;7006;51.494;11.964;2023-06-26T00:47:50;7.80;;;7.00;;
13872;SDS011;7006;51.494;11.964;2023-06-26T00:50:18;8.20;;;7.40;;
13872;SDS011;7006;51.494;11.964;2023-06-26T00:52:49;8.33;;;7.10;;
13872;SDS011;7006;51.494;11.964;2023-06-26T00:55:17;14.43;;;7.43;;
13872;SDS011;7006;51.494;11.964;2023-06-26T00:57:45;8.10;;;7.33;;
13872;SDS011;7006;51.494;11.964;2023-06-26T01:00:14;8.00;;;6.70;;
13872;SDS011;7006;51.494;11.964;2023-06-26T01:02:43;9.63;;;7.50;;
13872;SDS011;7006;51.494;11.964;2023-06-26T01:05:11;8.70;;;7.80;;
13872;SDS011;7006;51.494;11.964;2023-06-26T01:07:48;9.13;;;7.00;;
13872;SDS011;7006;51.494;11.964;2023-06-26T01:10:17;9.23;;;7.13;;
13872;SDS011;7006;51.494;11.964;2023-06-26T01:12:45;8.40;;;7.40;;
13872;SDS011;7006;51.494;11.964;2023-06-26T01:15:14;8.60;;;7.70;;
13872;SDS011;7006;51.494;11.964;2023-06-26T01:17:42;9.27;;;8.37;;
13872;SDS011;7006;51.494;11.964;2023-06-26T01:20:10;9.17;;;8.17;;
13872;SDS011;7006;51.494;11.964;2023-06-26T01:22:39;9.07;;;8.07;;
13872;SDS011;7006;51.494;11.964;2023-06-26T01:25:15;9.47;;;8.40;;
13872;SDS011;7006;51.494;11.964;2023-06-26T01:27:48;10.37;;;8.20;;
13872;SDS011;7006;51.494;11.964;2023-06-26T01:30:17;8.33;;;7.53;;
13872;SDS011;7006;51.494;11.964;2023-06-26T01:32:46;10.13;;;7.73;;
13872;SDS011;7006;51.494;11.964;2023-06-26T01:35:15;10.53;;;8.00;;
13872;SDS011;7006;51.494;11.964;2023-06-26T01:37:43;8.97;;;7.97;;
13872;SDS011;7006;51.494;11.964;2023-06-26T01:40:11;9.20;;;7.97;;
13872;SDS011;7006;51.494;11.964;2023-06-26T01:42:40;8.00;;;6.90;;
13872;SDS011;7006;51.494;11.964;2023-06-26T01:45:12;8.67;;;7.60;;
13872;SDS011;7006;51.494;11.964;2023-06-26T01:47:41;10.93;;;7.57;;
13872;SDS011;7006;51.494;11.964;2023-06-26T01:50:12;8.43;;;7.13;;
13872;SDS011;7006;51.494;11.964;2023-06-26T01:52:42;11.07;;;7.90;;
13872;SDS011;7006;51.494;11.964;2023-06-26T01:55:12;13.70;;;7.93;;
13872;SDS011;7006;51.494;11.964;2023-06-26T01:57:42;11.00;;;8.00;;
13872;SDS011;7006;51.494;11.964;2023-06-26T02:00:14;16.13;;;8.10;;
13872;SDS011;7006;51.494;11.964;2023-06-26T02:02:43;12.00;;;7.93;;
13872;SDS011;7006;51.494;11.964;2023-06-26T02:05:12;10.63;;;8.77;;
13872;SDS011;7006;51.494;11.964;2023-06-26T02:07:40;9.33;;;8.30;;
13872;SDS011;7006;51.494;11.964;2023-06-26T02:10:09;9.17;;;8.00;;
13872;SDS011;7006;51.494;11.964;2023-06-26T02:12:37;9.30;;;8.40;;
13872;SDS011;7006;51.494;11.964;2023-06-26T02:15:06;11.47;;;7.93;;
13872;SDS011;7006;51.494;11.964;2023-06-26T02:17:37;8.90;;;8.10;;
13872;SDS011;7006;51.494;11.964;2023-06-26T02:20:06;15.13;;;10.27;;
13872;SDS011;7006;51.494;11.964;2023-06-26T02:22:35;10.00;;;7.97;;
13872;SDS011;7006;51.494;11.964;2023-06-26T02:25:03;8.43;;;7.63;;
13872;SDS011;7006;51.494;11.964;2023-06-26T02:27:32;10.37;;;9.27;;
13872;SDS011;7006;51.494;11.964;2023-06-26T02:30:00;10.17;;;9.00;;
13872;SDS011;7006;51.494;11.964;2023-06-26T02:32:28;13.03;;;8.93;;
13872;SDS011;7006;51.494;11.964;2023-06-26T02:34:58;13.00;;;8.50;;
13872;SDS011;7006;51.494;11.964;2023-06-26T02:37:26;10.70;;;8.60;;
13872;SDS011;7006;51.494;11.964;2023-06-26T02:39:54;10.20;;;8.50;;
13872;SDS011;7006;51.494;11.964;2023-06-26T02:42:22;9.37;;;8.40;;
13872;SDS011;7006;51.494;11.964;2023-06-26T02:44:51;10.73;;;8.87;;
13872;SDS011;7006;51.494;11.964;2023-06-26T02:47:19;9.57;;;8.63;;
13872;SDS011;7006;51.494;11.964;2023-06-26T02:49:47;13.40;;;9.10;;
13872;SDS011;7006;51.494;11.964;2023-06-26T02:52:18;11.70;;;9.20;;
13872;SDS011;7006;51.494;11.964;2023-06-26T02:54:46;11.10;;;8.83;;
13872;SDS011;7006;51.494;11.964;2023-06-26T02:57:14;14.63;;;11.00;;
13872;SDS011;7006;51.494;11.964;2023-06-26T02:59:42;16.90;;;11.63;;
13872;SDS011;7006;51.494;11.964;2023-06-26T03:02:10;13.20;;;9.73;;
13872;SDS011;7006;51.494;11.964;2023-06-26T03:04:38;13.07;;;10.90;;
13872;SDS011;7006;51.494;11.964;2023-06-26T03:07:08;11.50;;;8.90;;
13872;SDS011;7006;51.494;11.964;2023-06-26T03:09:39;11.13;;;9.70;;
13872;SDS011;7006;51.494;11.964;2023-06-26T03:12:07;9.70;;;8.70;;
13872;SDS011;7006;51.494;11.964;2023-06-26T03:14:36;10.40;;;8.60;;
13872;SDS011;7006;51.494;11.964;2023-06-26T03:17:04;10.20;;;9.20;;
13872;SDS011;7006;51.494;11.964;2023-06-26T03:19:32;9.63;;;8.73;;
13872;SDS011;7006;51.494;11.964;2023-06-26T03:22:00;9.37;;;8.33;;
13872;SDS011;7006;51.494;11.964;2023-06-26T03:24:28;10.10;;;9.10;;
13872;SDS011;7006;51.494;11.964;2023-06-26T03:26:59;11.00;;;8.73;;
13872;SDS011;7006;51.494;11.964;2023-06-26T03:29:28;9.70;;;8.77;;
13872;SDS011;7006;51.494;11.964;2023-06-26T03:31:56;10.40;;;9.30;;
13872;SDS011;7006;51.494;11.964;2023-06-26T03:34:24;9.80;;;8.63;;
13872;SDS011;7006;51.494;11.964;2023-06-26T03:36:52;10.70;;;9.60;;
13872;SDS011;7006;51.494;11.964;2023-06-26T03:39:20;11.03;;;9.60;;
13872;SDS011;7006;51.494;11.964;2023-06-26T03:41:48;10.43;;;9.43;;
13872;SDS011;7006;51.494;11.964;2023-06-26T03:44:21;9.60;;;8.70;;
13872;SDS011;7006;51.494;11.964;2023-06-26T03:46:50;10.80;;;9.37;;
13872;SDS011;7006;51.494;11.964;2023-06-26T03:49:18;10.23;;;9.23;;
13872;SDS011;7006;51.494;11.964;2023-06-26T03:51:46;10.43;;;8.90;;
13872;SDS011;7006;51.494;11.964;2023-06-26T03:54:14;10.40;;;9.40;;
13872;SDS011;7006;51.494;11.964;2023-06-26T03:56:42;10.53;;;9.47;;
13872;SDS011;7006;51.494;11.964;2023-06-26T03:59:10;12.40;;;9.20;;
13872;SDS011;7006;51.494;11.964;2023-06-26T04:01:41;10.67;;;9.57;;
13872;SDS011;7006;51.494;11.964;2023-06-26T04:04:09;12.37;;;9.57;;
13872;SDS011;7006;51.494;11.964;2023-06-26T04:06:37;10.63;;;9.00;;
13872;SDS011;7006;51.494;11.964;2023-06-26T04:09:05;13.13;;;9.57;;
13872;SDS011;7006;51.494;11.964;2023-06-26T04:11:33;13.20;;;10.50;;
13872;SDS011;7006;51.494;11.964;2023-06-26T04:14:01;14.90;;;9.47;;
13872;SDS011;7006;51.494;11.964;2023-06-26T04:16:30;9.37;;;8.37;;
13872;SDS011;7006;51.494;11.964;2023-06-26T04:19:00;11.70;;;9.40;;
13872;SDS011;7006;51.494;11.964;2023-06-26T04:21:30;13.83;;;9.43;;
13872;SDS011;7006;51.494;11.964;2023-06-26T04:23:58;11.60;;;9.17;;
13872;SDS011;7006;51.494;11.964;2023-06-26T04:26:26;12.88;;;10.40;;
13872;SDS011;7006;51.494;11.964;2023-06-26T04:28:54;12.37;;;9.70;;
13872;SDS011;7006;51.494;11.964;2023-06-26T04:31:22;12.63;;;10.20;;
13872;SDS011;7006;51.494;11.964;2023-06-26T04:33:51;17.23;;;9.63;;
13872;SDS011;7006;51.494;11.964;2023-06-26T04:36:22;11.97;;;10.37;;
13872;SDS011;7006;51.494;11.964;2023-06-26T04:38:53;13.03;;;9.57;;
13872;SDS011;7006;51.494;11.964;2023-06-26T04:41:21;12.50;;;9.80;;
13872;SDS011;7006;51.494;11.964;2023-06-26T04:43:49;12.67;;;10.30;;
13872;SDS011;7006;51.494;11.964;2023-06-26T04:46:17;14.70;;;9.53;;
13872;SDS011;7006;51.494;11.964;2023-06-26T04:48:45;12.57;;;10.07;;
13872;SDS011;7006;51.494;11.964;2023-06-26T04:51:13;11.50;;;10.40;;
13872;SDS011;7006;51.494;11.964;2023-06-26T04:53:48;12.73;;;9.70;;
13872;SDS011;7006;51.494;11.964;2023-06-26T04:56:16;13.07;;;10.60;;
13872;SDS011;7006;51.494;11.964;2023-06-26T04:58:44;14.53;;;10.07;;
13872;SDS011;7006;51.494;11.964;2023-06-26T05:01:12;11.77;;;9.17;;
13872;SDS011;7006;51.494;11.964;2023-06-26T05:03:42;12.03;;;9.93;;
13872;SDS011;7006;51.494;11.964;2023-06-26T05:06:10;13.53;;;10.07;;
13872;SDS011;7006;51.494;11.964;2023-06-26T05:08:38;12.60;;;9.47;;
13872;SDS011;7006;51.494;11.964;2023-06-26T05:11:09;13.93;;;10.47;;
13872;SDS011;7006;51.494;11.964;2023-06-26T05:13:37;10.80;;;9.27;;
13872;SDS011;7006;51.494;11.964;2023-06-26T05:16:05;18.17;;;11.27;;
13872;SDS011;7006;51.494;11.964;2023-06-26T05:18:34;13.70;;;9.77;;
13872;SDS011;7006;51.494;11.964;2023-06-26T05:21:02;12.80;;;10.80;;
13872;SDS011;7006;51.494;11.964;2023-06-26T05:23:31;13.13;;;10.43;;
13872;SDS011;7006;51.494;11.964;2023-06-26T05:26:00;13.73;;;10.40;;
13872;SDS011;7006;51.494;11.964;2023-06-26T05:28:31;14.80;;;10.07;;
13872;SDS011;7006;51.494;11.964;2023-06-26T05:31:01;17.03;;;10.03;;
13872;SDS011;7006;51.494;11.964;2023-06-26T05:33:30;11.87;;;10.10;;
13872;SDS011;7006;51.494;11.964;2023-06-26T05:35:58;12.50;;;9.90;;
13872;SDS011;7006;51.494;11.964;2023-06-26T05:38:27;12.03;;;10.27;;
13872;SDS011;7006;51.494;11.964;2023-06-26T05:40:55;12.00;;;10.43;;
13872;SDS011;7006;51.494;11.964;2023-06-26T05:43:24;11.27;;;9.90;;
13872;SDS011;7006;51.494;11.964;2023-06-26T05:45:55;16.23;;;10.87;;
13872;SDS011;7006;51.494;11.964;2023-06-26T05:48:23;11.60;;;10.10;;
13872;SDS011;7006;51.494;11.964;2023-06-26T05:50:52;11.60;;;10.40;;
13872;SDS011;7006;51.494;11.964;2023-06-26T05:53:20;13.90;;;10.13;;
13872;SDS011;7006;51.494;11.964;2023-06-26T05:55:48;14.40;;;10.13;;
13872;SDS011;7006;51.494;11.964;2023-06-26T05:58:17;11.53;;;10.10;;
13872;SDS011;7006;51.494;11.964;2023-06-26T06:00:45;15.73;;;10.20;;
13872;SDS011;7006;51.494;11.964;2023-06-26T06:03:16;12.50;;;10.73;;
13872;SDS011;7006;51.494;11.964;2023-06-26T06:05:44;14.37;;;11.37;;
13872;SDS011;7006;51.494;11.964;2023-06-26T06:08:12;12.20;;;11.00;;
13872;SDS011;7006;51.494;11.964;2023-06-26T06:10:40;12.17;;;10.67;;
13872;SDS011;7006;51.494;11.964;2023-06-26T06:13:08;14.63;;;10.93;;
13872;SDS011;7006;51.494;11.964;2023-06-26T06:15:36;11.43;;;10.23;;
13872;SDS011;7006;51.494;11.964;2023-06-26T06:18:04;16.87;;;10.33;;
13872;SDS011;7006;51.494;11.964;2023-06-26T06:20:35;14.10;;;10.13;;
13872;SDS011;7006;51.494;11.964;2023-06-26T06:23:03;12.00;;;10.77;;
13872;SDS011;7006;51.494;11.964;2023-06-26T06:25:32;13.33;;;10.23;;
13872;SDS011;7006;51.494;11.964;2023-06-26T06:28:00;11.13;;;9.87;;
13872;SDS011;7006;51.494;11.964;2023-06-26T06:30:28;13.87;;;9.73;;
13872;SDS011;7006;51.494;11.964;2023-06-26T06:32:57;10.60;;;9.50;;
13872;SDS011;7006;51.494;11.964;2023-06-26T06:35:25;11.37;;;10.17;;
13872;SDS011;7006;51.494;11.964;2023-06-26T06:37:55;12.97;;;10.00;;
13872;SDS011;7006;51.494;11.964;2023-06-26T06:40:24;15.00;;;9.77;;
13872;SDS011;7006;51.494;11.964;2023-06-26T06:42:53;11.93;;;9.80;;
13872;SDS011;7006;51.494;11.964;2023-06-26T06:45:21;14.47;;;12.93;;
13872;SDS011;7006;51.494;11.964;2023-06-26T06:47:49;11.73;;;10.57;;
13872;SDS011;7006;51.494;11.964;2023-06-26T06:50:17;14.03;;;10.40;;
13872;SDS011;7006;51.494;11.964;2023-06-26T06:52:45;13.40;;;10.00;;
13872;SDS011;7006;51.494;11.964;2023-06-26T06:55:16;12.50;;;9.87;;
13872;SDS011;7006;51.494;11.964;2023-06-26T06:57:44;16.50;;;10.30;;
13872;SDS011;7006;51.494;11.964;2023-06-26T07:00:12;11.10;;;8.80;;
13872;SDS011;7006;51.494;11.964;2023-06-26T07:02:42;10.80;;;8.97;;
13872;SDS011;7006;51.494;11.964;2023-06-26T07:05:10;9.50;;;8.60;;
13872;SDS011;7006;51.494;11.964;2023-06-26T07:07:38;11.10;;;9.30;;
13872;SDS011;7006;51.494;11.964;2023-06-26T07:10:08;10.50;;;8.93;;
13872;SDS011;7006;51.494;11.964;2023-06-26T07:12:39;14.07;;;9.30;;
13872;SDS011;7006;51.494;11.964;2023-06-26T07:15:09;10.13;;;9.20;;
13872;SDS011;7006;51.494;11.964;2023-06-26T07:17:37;11.00;;;9.40;;
13872;SDS011;7006;51.494;11.964;2023-06-26T07:20:06;14.33;;;9.40;;
13872;SDS011;7006;51.494;11.964;2023-06-26T07:22:35;10.63;;;8.87;;
13872;SDS011;7006;51.494;11.964;2023-06-26T07:25:03;8.77;;;7.87;;
13872;SDS011;7006;51.494;11.964;2023-06-26T07:27:34;10.60;;;8.87;;
13872;SDS011;7006;51.494;11.964;2023-06-26T07:30:05;9.77;;;8.20;;
13872;SDS011;7006;51.494;11.964;2023-06-26T07:32:33;9.83;;;8.67;;
13872;SDS011;7006;51.494;11.964;2023-06-26T07:35:02;9.97;;;9.00;;
13872;SDS011;7006;51.494;11.964;2023-06-26T07:37:30;10.77;;;9.67;;
13872;SDS011;7006;51.494;11.964;2023-06-26T07:39:58;9.60;;;8.60;;
13872;SDS011;7006;51.494;11.964;2023-06-26T07:42:26;9.40;;;8.40;;
13872;SDS011;7006;51.494;11.964;2023-06-26T07:44:54;9.83;;;8.80;;
13872;SDS011;7006;51.494;11.964;2023-06-26T07:47:26;11.80;;;8.90;;
13872;SDS011;7006;51.494;11.964;2023-06-26T07:49:54;10.27;;;9.17;;
13872;SDS011;7006;51.494;11.964;2023-06-26T07:52:22;10.27;;;9.27;;
13872;SDS011;7006;51.494;11.964;2023-06-26T07:54:50;9.83;;;8.83;;
13872;SDS011;7006;51.494;11.964;2023-06-26T07:57:18;12.90;;;8.93;;
13872;SDS011;7006;51.494;11.964;2023-06-26T07:59:46;11.13;;;10.03;;
13872;SDS011;7006;51.494;11.964;2023-06-26T08:02:14;10.03;;;9.10;;
13872;SDS011;7006;51.494;11.964;2023-06-26T08:04:45;9.20;;;8.27;;
13872;SDS011;7006;51.494;11.964;2023-06-26T08:07:13;10.80;;;8.83;;
13872;SDS011;7006;51.494;11.964;2023-06-26T08:09:41;10.93;;;9.83;;
13872;SDS011;7006;51.494;11.964;2023-06-26T08:12:09;11.03;;;8.93;;
13872;SDS011;7006;51.494;11.964;2023-06-26T08:14:37;9.93;;;7.93;;
13872;SDS011;7006;51.494;11.964;2023-06-26T08:17:05;10.33;;;9.00;;
13872;SDS011;7006;51.494;11.964;2023-06-26T08:19:33;9.97;;;8.90;;
13872;SDS011;7006;51.494;11.964;2023-06-26T08:22:04;11.87;;;8.33;;
13872;SDS011;7006;51.494;11.964;2023-06-26T08:24:33;10.57;;;8.03;;
13872;SDS011;7006;51.494;11.964;2023-06-26T08:27:02;11.17;;;8.27;;
13872;SDS011;7006;51.494;11.964;2023-06-26T08:29:31;8.87;;;8.00;;
13872;SDS011;7006;51.494;11.964;2023-06-26T08:31:59;9.27;;;8.30;;
13872;SDS011;7006;51.494;11.964;2023-06-26T08:34:27;8.20;;;7.40;;
13872;SDS011;7006;51.494;11.964;2023-06-26T08:36:55;9.50;;;7.53;;
13872;SDS011;7006;51.494;11.964;2023-06-26T08:39:26;11.73;;;8.53;;
13872;SDS011;7006;51.494;11.964;2023-06-26T08:41:54;9.07;;;8.27;;
13872;SDS011;7006;51.494;11.964;2023-06-26T08:44:22;9.97;;;8.90;;
13872;SDS011;7006;51.494;11.964;2023-06-26T08:46:51;8.90;;;8.00;;
13872;SDS011;7006;51.494;11.964;2023-06-26T08:49:20;9.03;;;7.93;;
13872;SDS011;7006;51.494;11.964;2023-06-26T08:51:50;9.77;;;8.47;;
13872;SDS011;7006;51.494;11.964;2023-06-26T08:54:20;9.10;;;8.20;;
13872;SDS011;7006;51.494;11.964;2023-06-26T08:56:52;9.37;;;7.73;;
13872;SDS011;7006;51.494;11.964;2023-06-26T08:59:20;8.50;;;7.63;;
13872;SDS011;7006;51.494;11.964;2023-06-26T09:01:49;9.17;;;8.27;;
13872;SDS011;7006;51.494;11.964;2023-06-26T09:04:17;8.03;;;7.30;;
13872;SDS011;7006;51.494;11.964;2023-06-26T09:06:45;8.20;;;7.40;;
13872;SDS011;7006;51.494;11.964;2023-06-26T09:09:13;13.10;;;8.57;;
13872;SDS011;7006;51.494;11.964;2023-06-26T09:11:42;9.40;;;7.50;;
13872;SDS011;7006;51.494;11.964;2023-06-26T09:14:12;9.20;;;7.10;;
13872;SDS011;7006;51.494;11.964;2023-06-26T09:16:41;9.30;;;6.97;;
13872;SDS011;7006;51.494;11.964;2023-06-26T09:19:10;7.93;;;7.13;;
13872;SDS011;7006;51.494;11.964;2023-06-26T09:21:39;7.77;;;6.97;;
13872;SDS011;7006;51.494;11.964;2023-06-26T09:24:08;8.07;;;7.27;;
13872;SDS011;7006;51.494;11.964;2023-06-26T09:26:37;13.13;;;7.80;;
13872;SDS011;7006;51.494;11.964;2023-06-26T09:29:05;8.00;;;7.20;;
13872;SDS011;7006;51.494;11.964;2023-06-26T09:31:36;7.97;;;7.27;;
13872;SDS011;7006;51.494;11.964;2023-06-26T09:34:04;7.27;;;6.57;;
13872;SDS011;7006;51.494;11.964;2023-06-26T09:36:33;7.60;;;6.90;;
13872;SDS011;7006;51.494;11.964;2023-06-26T09:39:01;8.03;;;7.33;;
13872;SDS011;7006;51.494;11.964;2023-06-26T09:41:33;7.43;;;6.73;;
13872;SDS011;7006;51.494;11.964;2023-06-26T09:44:02;7.30;;;6.70;;
13872;SDS011;7006;51.494;11.964;2023-06-26T09:46:30;7.10;;;6.50;;
13872;SDS011;7006;51.494;11.964;2023-06-26T09:49:01;7.60;;;6.90;;
13872;SDS011;7006;51.494;11.964;2023-06-26T09:51:30;7.80;;;6.93;;
13872;SDS011;7006;51.494;11.964;2023-06-26T09:53:59;7.23;;;6.53;;
13872;SDS011;7006;51.494;11.964;2023-06-26T09:56:27;7.03;;;6.33;;
13872;SDS011;7006;51.494;11.964;2023-06-26T09:58:56;8.97;;;6.83;;
13872;SDS011;7006;51.494;11.964;2023-06-26T10:01:24;8.20;;;7.40;;
13872;SDS011;7006;51.494;11.964;2023-06-26T10:03:53;7.87;;;7.03;;
13872;SDS011;7006;51.494;11.964;2023-06-26T10:06:26;7.70;;;7.00;;
13872;SDS011;7006;51.494;11.964;2023-06-26T10:08:55;8.03;;;7.20;;
13872;SDS011;7006;51.494;11.964;2023-06-26T10:11:24;7.00;;;6.40;;
13872;SDS011;7006;51.494;11.964;2023-06-26T10:13:53;7.50;;;6.80;;
13872;SDS011;7006;51.494;11.964;2023-06-26T10:16:22;8.97;;;7.33;;
13872;SDS011;7006;51.494;11.964;2023-06-26T10:18:51;7.80;;;7.00;;
13872;SDS011;7006;51.494;11.964;2023-06-26T10:21:21;8.30;;;7.50;;
13872;SDS011;7006;51.494;11.964;2023-06-26T10:23:52;7.93;;;7.13;;
13872;SDS011;7006;51.494;11.964;2023-06-26T10:26:21;8.73;;;7.00;;
13872;SDS011;7006;51.494;11.964;2023-06-26T10:28:49;7.17;;;6.47;;
13872;SDS011;7006;51.494;11.964;2023-06-26T10:31:19;8.60;;;7.80;;
13872;SDS011;7006;51.494;11.964;2023-06-26T10:33:48;8.50;;;6.87;;
13872;SDS011;7006;51.494;11.964;2023-06-26T10:36:18;7.87;;;7.07;;
13872;SDS011;7006;51.494;11.964;2023-06-26T10:38:53;7.50;;;6.77;;
13872;SDS011;7006;51.494;11.964;2023-06-26T10:41:22;7.80;;;7.10;;
13872;SDS011;7006;51.494;11.964;2023-06-26T10:43:51;8.00;;;7.30;;
13872;SDS011;7006;51.494;11.964;2023-06-26T10:46:19;7.70;;;7.00;;
13872;SDS011;7006;51.494;11.964;2023-06-26T10:48:55;8.77;;;8.00;;
13872;SDS011;7006;51.494;11.964;2023-06-26T10:51:24;8.43;;;7.63;;
13872;SDS011;7006;51.494;11.964;2023-06-26T10:54:00;7.70;;;6.90;;
13872;SDS011;7006;51.494;11.964;2023-06-26T10:56:41;8.47;;;7.77;;
13872;SDS011;7006;51.494;11.964;2023-06-26T10:59:15;8.40;;;7.50;;
13872;SDS011;7006;51.494;11.964;2023-06-26T11:01:44;8.00;;;7.23;;
13872;SDS011;7006;51.494;11.964;2023-06-26T11:04:13;7.73;;;7.03;;
13872;SDS011;7006;51.494;11.964;2023-06-26T11:06:44;8.63;;;7.73;;
13872;SDS011;7006;51.494;11.964;2023-06-26T11:09:17;8.73;;;7.93;;
13872;SDS011;7006;51.494;11.964;2023-06-26T11:11:55;8.97;;;8.17;;
13872;SDS011;7006;51.494;11.964;2023-06-26T11:14:29;9.60;;;8.40;;
13872;SDS011;7006;51.494;11.964;2023-06-26T11:16:58;7.17;;;6.57;;
13872;SDS011;7006;51.494;11.964;2023-06-26T11:19:27;9.17;;;8.30;;
13872;SDS011;7006;51.494;11.964;2023-06-26T11:22:01;8.77;;;7.87;;
13872;SDS011;7006;51.494;11.964;2023-06-26T11:24:32;9.23;;;8.40;;
13872;SDS011;7006;51.494;11.964;2023-06-26T11:27:01;7.60;;;7.00;;
13872;SDS011;7006;51.494;11.964;2023-06-26T11:29:30;7.53;;;6.83;;
13872;SDS011;7006;51.494;11.964;2023-06-26T11:31:59;7.57;;;6.97;;
13872;SDS011;7006;51.494;11.964;2023-06-26T11:34:32;8.47;;;7.67;;
13872;SDS011;7006;51.494;11.964;2023-06-26T11:37:00;8.03;;;7.23;;
13872;SDS011;7006;51.494;11.964;2023-06-26T11:39:34;8.63;;;7.53;;
13872;SDS011;7006;51.494;11.964;2023-06-26T11:42:02;8.50;;;7.73;;
13872;SDS011;7006;51.494;11.964;2023-06-26T11:44:31;8.40;;;7.60;;
13872;SDS011;7006;51.494;11.964;2023-06-26T11:46:59;8.00;;;7.30;;
13872;SDS011;7006;51.494;11.964;2023-06-26T11:49:29;7.83;;;7.13;;
13872;SDS011;7006;51.494;11.964;2023-06-26T11:51:57;7.53;;;6.87;;
13872;SDS011;7006;51.494;11.964;2023-06-26T11:54:26;9.80;;;7.17;;
13872;SDS011;7006;51.494;11.964;2023-06-26T11:56:57;8.63;;;7.73;;
13872;SDS011;7006;51.494;11.964;2023-06-26T11:59:33;8.10;;;7.40;;
13872;SDS011;7006;51.494;11.964;2023-06-26T12:02:04;8.70;;;7.40;;
13872;SDS011;7006;51.494;11.964;2023-06-26T12:04:33;9.00;;;7.53;;
13872;SDS011;7006;51.494;11.964;2023-06-26T12:07:01;8.47;;;6.93;;
13872;SDS011;7006;51.494;11.964;2023-06-26T12:09:32;8.00;;;7.20;;
13872;SDS011;7006;51.494;11.964;2023-06-26T12:12:04;7.37;;;6.67;;
13872;SDS011;7006;51.494;11.964;2023-06-26T12:14:32;8.87;;;7.63;;
13872;SDS011;7006;51.494;11.964;2023-06-26T12:17:04;8.00;;;7.30;;
13872;SDS011;7006;51.494;11.964;2023-06-26T12:19:33;7.53;;;6.90;;
13872;SDS011;7006;51.494;11.964;2023-06-26T12:22:06;8.63;;;7.87;;
13872;SDS011;7006;51.494;11.964;2023-06-26T12:24:35;9.77;;;7.67;;
13872;SDS011;7006;51.494;11.964;2023-06-26T12:27:09;9.17;;;8.27;;
13872;SDS011;7006;51.494;11.964;2023-06-26T12:29:38;7.97;;;6.83;;
13872;SDS011;7006;51.494;11.964;2023-06-26T12:32:08;8.27;;;7.47;;
13872;SDS011;7006;51.494;11.964;2023-06-26T12:34:37;8.30;;;7.00;;
13872;SDS011;7006;51.494;11.964;2023-06-26T12:37:06;9.57;;;7.70;;
13872;SDS011;7006;51.494;11.964;2023-06-26T12:39:48;7.90;;;7.20;;
13872;SDS011;7006;51.494;11.964;2023-06-26T12:42:19;8.37;;;7.57;;
13872;SDS011;7006;51.494;11.964;2023-06-26T12:44:47;9.17;;;7.90;;
13872;SDS011;7006;51.494;11.964;2023-06-26T12:47:16;7.37;;;6.67;;
13872;SDS011;7006;51.494;11.964;2023-06-26T12:49:44;8.10;;;7.33;;
13872;SDS011;7006;51.494;11.964;2023-06-26T12:52:13;8.80;;;7.00;;
13872;SDS011;7006;51.494;11.964;2023-06-26T12:54:43;8.00;;;7.20;;
13872;SDS011;7006;51.494;11.964;2023-06-26T12:57:12;7.97;;;7.17;;
13872;SDS011;7006;51.494;11.964;2023-06-26T12:59:43;8.00;;;7.20;;
13872;SDS011;7006;51.494;11.964;2023-06-26T13:02:11;8.03;;;7.23;;
13872;SDS011;7006;51.494;11.964;2023-06-26T13:04:39;8.23;;;7.53;;
13872;SDS011;7006;51.494;11.964;2023-06-26T13:07:09;8.07;;;7.27;;
13872;SDS011;7006;51.494;11.964;2023-06-26T13:09:37;8.70;;;7.83;;
13872;SDS011;7006;51.494;11.964;2023-06-26T13:12:06;7.83;;;7.03;;
13872;SDS011;7006;51.494;11.964;2023-06-26T13:14:34;8.63;;;7.57;;
13872;SDS011;7006;51.494;11.964;2023-06-26T13:17:06;7.77;;;6.97;;
13872;SDS011;7006;51.494;11.964;2023-06-26T13:19:34;7.73;;;7.00;;
13872;SDS011;7006;51.494;11.964;2023-06-26T13:22:02;7.53;;;6.83;;
13872;SDS011;7006;51.494;11.964;2023-06-26T13:24:30;8.00;;;6.63;;
13872;SDS011;7006;51.494;11.964;2023-06-26T13:26:59;8.00;;;7.20;;
13872;SDS011;7006;51.494;11.964;2023-06-26T13:29:28;9.97;;;7.63;;
13872;SDS011;7006;51.494;11.964;2023-06-26T13:31:56;10.50;;;9.50;;
13872;SDS011;7006;51.494;11.964;2023-06-26T13:34:27;19.67;;;10.97;;
13872;SDS011;7006;51.494;11.964;2023-06-26T13:36:56;17.60;;;11.90;;
13872;SDS011;7006;51.494;11.964;2023-06-26T13:39:25;13.00;;;11.80;;
13872;SDS011;7006;51.494;11.964;2023-06-26T13:41:53;15.80;;;11.53;;
13872;SDS011;7006;51.494;11.964;2023-06-26T13:44:21;17.30;;;11.97;;
13872;SDS011;7006;51.494;11.964;2023-06-26T13:46:49;13.63;;;11.77;;
13872;SDS011;7006;51.494;11.964;2023-06-26T13:49:18;12.80;;;11.53;;
13872;SDS011;7006;51.494;11.964;2023-06-26T13:51:49;12.23;;;11.03;;
13872;SDS011;7006;51.494;11.964;2023-06-26T13:54:17;15.13;;;11.10;;
13872;SDS011;7006;51.494;11.964;2023-06-26T13:56:45;11.80;;;10.60;;
13872;SDS011;7006;51.494;11.964;2023-06-26T13:59:13;11.73;;;10.53;;
13872;SDS011;7006;51.494;11.964;2023-06-26T14:01:43;11.77;;;10.60;;
13872;SDS011;7006;51.494;11.964;2023-06-26T14:04:12;11.83;;;10.17;;
13872;SDS011;7006;51.494;11.964;2023-06-26T14:06:40;11.37;;;10.03;;
13872;SDS011;7006;51.494;11.964;2023-06-26T14:09:13;11.90;;;10.60;;
13872;SDS011;7006;51.494;11.964;2023-06-26T14:11:41;11.73;;;10.53;;
13872;SDS011;7006;51.494;11.964;2023-06-26T14:14:09;13.53;;;11.40;;
13872;SDS011;7006;51.494;11.964;2023-06-26T14:16:37;14.60;;;10.40;;
13872;SDS011;7006;51.494;11.964;2023-06-26T14:19:05;12.10;;;10.90;;
13872;SDS011;7006;51.494;11.964;2023-06-26T14:21:35;12.37;;;11.07;;
13872;SDS011;7006;51.494;11.964;2023-06-26T14:24:03;13.67;;;10.57;;
13872;SDS011;7006;51.494;11.964;2023-06-26T14:26:34;11.57;;;10.43;;
13872;SDS011;7006;51.494;11.964;2023-06-26T14:29:03;12.00;;;10.87;;
13872;SDS011;7006;51.494;11.964;2023-06-26T14:31:32;12.47;;;10.67;;
13872;SDS011;7006;51.494;11.964;2023-06-26T14:34:00;12.07;;;10.97;;
13872;SDS011;7006;51.494;11.964;2023-06-26T14:36:28;11.77;;;10.57;;
13872;SDS011;7006;51.494;11.964;2023-06-26T14:38:57;11.07;;;9.97;;
13872;SDS011;7006;51.494;11.964;2023-06-26T14:41:25;11.30;;;10.20;;
13872;SDS011;7006;51.494;11.964;2023-06-26T14:43:56;11.53;;;10.40;;
13872;SDS011;7006;51.494;11.964;2023-06-26T14:46:24;11.77;;;10.57;;
13872;SDS011;7006;51.494;11.964;2023-06-26T14:48:52;12.00;;;10.73;;